KIND/IND METAR and TAF weather

Enter ICAO airport designator
Station Type Date Time Source
KIND METAR 2019/12/06 01:54 UTC NOAA

KIND 060154Z 16007KT 10SM FEW250 05/M01 A3004 RMK AO2 SLP178 T00501006


Station Type Date Time Source
KIND Decoded METAR 2019/12/06 01:54 UTC NOAA

INDIANAPOLIS INTERNATIONAL AIRPORT , IN, United States (KIND) 39-43N 86-17W 242M
Dec 05, 2019 - 08:54 PM EST / 2019.12.06 0154 UTC
Wind: from the SSE (160 degrees) at 8 MPH (7 KT):0
Visibility: 10 mile(s):0
Sky conditions: mostly clear
Temperature: 41.0 F (5.0 C)
Dew Point: 30.9 F (-0.6 C)
Relative Humidity: 67%
Pressure (altimeter): 30.04 in. Hg (1017 hPa)
ob: KIND 060154Z 16007KT 10SM FEW250 05/M01 A3004 RMK AO2 SLP178 T00501006
cycle: 2

Station Type Date Time Source
KIND TAF 2019/12/05 20:21 UTC NOAA

TAF
AMD KIND 052017Z 0520/0624 18005KT P6SM FEW250
FM060800 23007KT P6SM BKN090 WS020/25035KT
FM061300 28006KT P6SM OVC030
FM061500 34008KT P6SM BKN009
FM061800 01009KT P6SM BKN028
FM061900 01009KT P6SM SCT080

Example: see airport list